Time;durP1;ratioP1;P1;durP2;ratioP2;P2;SDS_P1;SDS_P2;PMS_P1;PMS_P2;Temp;Humidity;BMP_temperature;BMP_pressure;BME280_temperature;BME280_humidity;BME280_pressure;Samples;Min_cycle;Max_cycle;Signal;HPM_P1;HPM_P2
2022/09/22 00:01:03;;;;;;;6.53;2.00;;;22.20;99.90;;;;;;5032824;28;20021;-73
2022/09/22 00:03:30;;;;;;;7.38;2.08;;;22.20;99.90;;;;;;5032165;28;20045;-72
2022/09/22 00:06:02;;;;;;;4.97;1.92;;;22.30;99.90;;;;;;5031931;28;20025;-72
2022/09/22 00:08:31;;;;;;;6.50;1.80;;;22.20;99.90;;;;;;5031642;28;20029;-72
2022/09/22 00:11:16;;;;;;;7.07;2.03;;;22.30;99.90;;;;;;5032007;28;20101;-71
2022/09/22 00:13:49;;;;;;;7.47;2.30;;;22.30;99.90;;;;;;5031781;28;20072;-72
2022/09/22 00:16:16;;;;;;;8.70;1.80;;;22.30;99.90;;;;;;5031941;28;20076;-72
2022/09/22 00:18:42;;;;;;;7.40;1.75;;;22.30;99.90;;;;;;5031607;28;20100;-72
2022/09/22 00:21:14;;;;;;;6.88;2.00;;;22.30;99.90;;;;;;5031772;28;20056;-72
2022/09/22 00:23:41;;;;;;;6.35;1.88;;;22.40;99.90;;;;;;5031780;28;20045;-73
2022/09/22 00:26:14;;;;;;;9.63;2.03;;;22.40;99.90;;;;;;5031462;28;20025;-73
2022/09/22 00:28:41;;;;;;;5.45;1.65;;;22.30;99.90;;;;;;5031770;28;20044;-72
2022/09/22 00:31:11;;;;;;;7.53;1.90;;;22.30;99.90;;;;;;5030280;28;20025;-72
2022/09/22 00:33:39;;;;;;;6.35;2.17;;;22.30;99.90;;;;;;5029694;28;20049;-72
2022/09/22 00:36:06;;;;;;;6.75;1.80;;;22.30;99.90;;;;;;5030167;28;20018;-73
2022/09/22 00:38:36;;;;;;;7.68;2.03;;;22.30;99.90;;;;;;5030003;28;20198;-72
2022/09/22 00:41:03;;;;;;;5.30;1.73;;;22.30;99.90;;;;;;5029731;28;20151;-72
2022/09/22 00:43:35;;;;;;;4.75;1.73;;;22.20;99.90;;;;;;5031129;28;20101;-72
2022/09/22 00:46:24;;;;;;;7.30;1.98;;;22.20;99.90;;;;;;5031168;28;20021;-72
2022/09/22 00:49:04;;;;;;;6.32;2.00;;;22.20;99.90;;;;;;5045778;28;20458;-72
2022/09/22 00:51:35;;;;;;;4.93;1.67;;;22.20;99.90;;;;;;5031114;28;20340;-72
2022/09/22 00:54:05;;;;;;;6.20;2.08;;;22.10;99.90;;;;;;5031093;28;20124;-72
2022/09/22 00:56:44;;;;;;;6.15;1.60;;;22.10;99.90;;;;;;5031304;28;20055;-72
2022/09/22 00:59:15;;;;;;;6.72;1.58;;;22.10;99.90;;;;;;5031285;28;20026;-72
2022/09/22 01:01:41;;;;;;;7.57;2.10;;;22.10;99.90;;;;;;5031109;28;20025;-72
2022/09/22 01:04:07;;;;;;;8.20;1.80;;;22.00;99.90;;;;;;5029484;28;20120;-72
2022/09/22 01:06:35;;;;;;;4.15;1.70;;;22.00;99.90;;;;;;5031030;28;20047;-72
2022/09/22 01:09:02;;;;;;;4.22;1.48;;;21.90;99.90;;;;;;5030401;28;20025;-72
2022/09/22 01:11:29;;;;;;;10.52;1.90;;;21.90;99.90;;;;;;5030487;28;20083;-72
2022/09/22 01:13:54;;;;;;;;;;;21.80;99.90;;;;;;5030702;28;20548;-71
2022/09/22 01:16:45;;;;;;;5.70;1.60;;;21.80;99.90;;;;;;5030733;28;19996;-72
2022/09/22 01:19:29;;;;;;;5.82;1.60;;;21.80;99.90;;;;;;5030942;28;20026;-72
2022/09/22 01:22:25;;;;;;;6.40;1.77;;;21.70;99.90;;;;;;5029035;28;20501;-71
2022/09/22 01:25:28;;;;;;;7.10;1.83;;;21.70;99.90;;;;;;5030721;28;20132;-72
2022/09/22 01:28:28;;;;;;;4.78;1.50;;;21.70;99.90;;;;;;5030459;28;20107;-72
2022/09/22 01:31:10;;;;;;;8.52;1.85;;;21.70;99.90;;;;;;5030599;28;20053;-72
2022/09/22 01:33:40;;;;;;;6.60;1.77;;;21.70;99.90;;;;;;5030345;28;20049;-72
2022/09/22 01:36:14;;;;;;;7.10;1.70;;;21.70;99.90;;;;;;5030511;28;20025;-72
2022/09/22 01:39:05;;;;;;;6.20;1.60;;;21.60;99.90;;;;;;5029032;28;20470;-72
2022/09/22 01:41:41;;;;;;;5.40;1.48;;;21.60;99.90;;;;;;5030723;28;20036;-72
2022/09/22 01:44:34;;;;;;;4.90;1.55;;;21.60;99.90;;;;;;5030602;28;20021;-71
2022/09/22 01:47:16;;;;;;;5.40;1.65;;;21.60;99.90;;;;;;5030467;28;20037;-72
2022/09/22 01:49:49;;;;;;;7.25;1.60;;;21.60;99.90;;;;;;5030604;28;20489;-72
2022/09/22 01:52:24;;;;;;;4.22;1.42;;;21.50;99.90;;;;;;5030261;28;20060;-72
2022/09/22 01:55:15;;;;;;;6.30;1.80;;;21.40;99.90;;;;;;5030494;28;20139;-72
2022/09/22 01:57:56;;;;;;;9.10;1.92;;;21.40;99.90;;;;;;5030635;28;20029;-71
2022/09/22 02:00:22;;;;;;;5.32;1.65;;;21.40;99.90;;;;;;5034224;28;20021;-72
2022/09/22 02:02:57;;;;;;;6.22;2.28;;;21.30;99.90;;;;;;5034279;28;20022;-74
2022/09/22 02:05:32;;;;;;;5.13;1.77;;;21.30;99.90;;;;;;5034209;28;20053;-74
2022/09/22 02:08:03;;;;;;;7.88;1.70;;;21.30;99.90;;;;;;5032664;28;20025;-73
2022/09/22 02:10:41;;;;;;;5.30;1.73;;;21.30;99.90;;;;;;5034218;28;20109;-72
2022/09/22 02:13:07;;;;;;;5.82;1.80;;;21.30;99.90;;;;;;5034433;28;20127;-72
2022/09/22 02:18:43;;;;;;;5.47;1.60;;;21.30;99.90;;;;;;5034176;28;20052;-72
2022/09/22 02:21:10;;;;;;;4.95;1.55;;;21.30;99.90;;;;;;5030843;28;20088;-72
2022/09/22 02:23:37;;;;;;;5.88;1.52;;;21.40;99.90;;;;;;5032115;28;20390;-72
2022/09/22 02:26:05;;;;;;;6.35;1.58;;;21.40;99.90;;;;;;5033638;28;20021;-72
2022/09/22 02:28:33;;;;;;;6.25;1.60;;;21.40;99.90;;;;;;5032315;28;20063;-72
2022/09/22 02:31:02;;;;;;;4.95;1.42;;;21.40;99.90;;;;;;5032201;28;20184;-72
2022/09/22 02:33:32;;;;;;;10.15;1.70;;;21.40;99.90;;;;;;5033416;28;20053;-72
2022/09/22 02:36:24;;;;;;;7.68;1.90;;;21.40;99.90;;;;;;5033865;28;20041;-73
2022/09/22 02:39:20;;;;;;;6.45;1.73;;;21.40;99.90;;;;;;5034025;28;20032;-72
2022/09/22 02:41:56;;;;;;;3.85;1.60;;;21.50;99.90;;;;;;5030307;28;20056;-72
2022/09/22 02:44:38;;;;;;;5.22;1.42;;;21.50;99.90;;;;;;5033887;28;20018;-72
2022/09/22 02:47:12;;;;;;;7.53;1.40;;;21.50;99.90;;;;;;5033336;28;20029;-73
2022/09/22 02:49:40;;;;;;;4.75;1.30;;;21.50;99.90;;;;;;5033661;28;20048;-72
2022/09/22 02:52:12;;;;;;;4.20;1.50;;;21.50;99.90;;;;;;5033643;28;20108;-73
2022/09/22 02:54:38;;;;;;;4.28;1.50;;;21.50;99.90;;;;;;5033587;28;20335;-72
2022/09/22 02:57:06;;;;;;;4.97;1.60;;;21.50;99.90;;;;;;5033849;28;20022;-72
2022/09/22 02:59:32;;;;;;;8.77;1.60;;;21.50;99.90;;;;;;5033594;28;20092;-73
2022/09/22 03:01:58;;;;;;;4.15;1.55;;;21.60;99.90;;;;;;5033701;28;20018;-73
2022/09/22 03:04:24;;;;;;;5.63;1.40;;;21.50;99.90;;;;;;5031587;28;20028;-73
2022/09/22 03:06:50;;;;;;;6.57;1.70;;;21.50;99.90;;;;;;5033442;28;20109;-73
2022/09/22 03:09:16;;;;;;;6.72;1.63;;;21.50;99.90;;;;;;5033329;28;20104;-73
2022/09/22 03:11:43;;;;;;;6.30;1.42;;;21.60;99.90;;;;;;5032860;28;20076;-73
2022/09/22 03:14:09;;;;;;;4.03;1.60;;;21.60;99.90;;;;;;5033350;28;20083;-73
2022/09/22 03:16:35;;;;;;;7.57;1.60;;;21.60;99.90;;;;;;5033560;28;20021;-73
2022/09/22 03:19:07;;;;;;;4.78;1.75;;;21.60;99.90;;;;;;5033004;28;20022;-73
2022/09/22 03:21:33;;;;;;;6.43;1.65;;;21.60;99.90;;;;;;5032815;28;20068;-73
2022/09/22 03:23:59;;;;;;;5.22;1.40;;;21.60;99.90;;;;;;5032079;28;20052;-73
2022/09/22 03:26:25;;;;;;;7.07;1.55;;;21.60;99.90;;;;;;5031990;28;20033;-73
2022/09/22 03:28:52;;;;;;;5.93;1.60;;;21.50;99.90;;;;;;5033385;28;20017;-73
2022/09/22 03:31:18;;;;;;;7.57;1.85;;;21.50;99.90;;;;;;5033637;28;20120;-72
2022/09/22 03:33:44;;;;;;;5.15;1.48;;;21.40;99.90;;;;;;5033051;28;20153;-72
2022/09/22 03:36:10;;;;;;;4.47;1.70;;;21.50;99.90;;;;;;5033570;28;20159;-73
2022/09/22 03:38:36;;;;;;;5.13;1.30;;;21.50;99.90;;;;;;5033192;28;20551;-73
2022/09/22 03:41:02;;;;;;;5.03;1.63;;;21.60;99.90;;;;;;5033204;28;20104;-72
2022/09/22 03:43:28;;;;;;;5.03;1.50;;;21.50;99.90;;;;;;5032932;28;20431;-73
2022/09/22 03:45:59;;;;;;;4.60;1.40;;;21.50;99.90;;;;;;5032940;28;20033;-73
2022/09/22 03:48:27;;;;;;;5.47;1.65;;;21.40;99.90;;;;;;5033113;28;20033;-73
2022/09/22 03:50:54;;;;;;;6.60;1.80;;;21.40;99.90;;;;;;5032968;28;20029;-73
2022/09/22 03:53:21;;;;;;;5.72;1.63;;;21.40;99.90;;;;;;5033016;28;20124;-73
2022/09/22 03:55:48;;;;;;;4.60;1.50;;;21.40;99.90;;;;;;5033287;28;20018;-72
2022/09/22 03:58:14;;;;;;;5.00;1.60;;;21.40;99.90;;;;;;5032965;28;20083;-74
2022/09/22 04:00:40;;;;;;;5.00;1.33;;;21.40;99.90;;;;;;5033035;28;20104;-73
2022/09/22 04:03:07;;;;;;;5.15;1.50;;;21.40;99.90;;;;;;5032907;28;20112;-73
2022/09/22 04:05:34;;;;;;;7.85;1.80;;;21.40;99.90;;;;;;5033163;28;20017;-73
2022/09/22 04:08:00;;;;;;;7.97;1.67;;;21.40;99.90;;;;;;5032804;28;20517;-73
2022/09/22 04:10:26;;;;;;;5.90;1.52;;;21.40;99.90;;;;;;5032722;28;20026;-72
2022/09/22 04:12:52;;;;;;;5.93;1.65;;;21.30;99.90;;;;;;5032505;28;20037;-73
2022/09/22 04:15:18;;;;;;;4.38;1.48;;;21.30;99.90;;;;;;5032709;28;20029;-73
2022/09/22 04:17:44;;;;;;;7.82;1.80;;;21.30;99.90;;;;;;5033077;28;20037;-73
2022/09/22 04:20:11;;;;;;;5.47;1.50;;;21.20;99.90;;;;;;5033334;28;20096;-73
2022/09/22 04:22:37;;;;;;;6.82;1.55;;;21.20;99.90;;;;;;5032976;28;20025;-72
2022/09/22 04:25:05;;;;;;;5.50;1.75;;;21.20;99.90;;;;;;5033356;28;20052;-73
2022/09/22 04:27:31;;;;;;;8.88;1.67;;;21.20;99.90;;;;;;5033587;28;20025;-72
2022/09/22 04:29:57;;;;;;;7.95;1.50;;;21.20;99.90;;;;;;5033159;28;20072;-73
2022/09/22 04:32:23;;;;;;;5.88;1.30;;;21.20;99.90;;;;;;5033130;28;20096;-73
2022/09/22 04:34:49;;;;;;;6.25;1.70;;;21.10;99.90;;;;;;5033103;28;20061;-73
2022/09/22 04:37:15;;;;;;;6.20;2.00;;;21.10;99.90;;;;;;5031697;28;20034;-73
2022/09/22 04:39:41;;;;;;;8.98;1.48;;;21.10;99.90;;;;;;5033243;28;20030;-73
2022/09/22 04:42:10;;;;;;;4.80;1.20;;;21.10;99.90;;;;;;5033006;28;20036;-73
2022/09/22 04:44:36;;;;;;;5.65;1.50;;;21.10;99.90;;;;;;5032858;28;20025;-73
2022/09/22 04:47:03;;;;;;;10.10;1.80;;;21.00;99.90;;;;;;5033355;28;20120;-73
2022/09/22 04:49:29;;;;;;;7.65;1.80;;;21.00;99.90;;;;;;5032909;28;20490;-72
2022/09/22 04:51:56;;;;;;;5.70;1.75;;;20.90;99.90;;;;;;5031568;28;20025;-73
2022/09/22 04:54:22;;;;;;;5.50;1.70;;;20.90;99.90;;;;;;5031374;28;20128;-74
2022/09/22 04:56:48;;;;;;;6.38;1.63;;;20.90;99.90;;;;;;5031322;28;20049;-72
2022/09/22 04:59:14;;;;;;;14.52;1.80;;;20.90;99.90;;;;;;5032924;28;20431;-74
2022/09/22 05:01:40;;;;;;;6.53;1.80;;;20.90;99.90;;;;;;5032798;28;20059;-73
2022/09/22 05:04:06;;;;;;;6.47;1.88;;;20.90;99.90;;;;;;5031412;28;20030;-73
2022/09/22 05:06:32;;;;;;;9.43;1.85;;;20.80;99.90;;;;;;5032986;28;20025;-73
2022/09/22 05:08:58;;;;;;;4.78;1.50;;;20.80;99.90;;;;;;5032239;28;20093;-72
2022/09/22 05:11:24;;;;;;;5.47;1.70;;;20.90;99.90;;;;;;5032005;28;20052;-72
2022/09/22 05:13:50;;;;;;;8.30;2.15;;;20.90;99.90;;;;;;5032500;28;20064;-72
2022/09/22 05:16:17;;;;;;;5.32;2.10;;;20.80;99.90;;;;;;5031928;28;20036;-73
2022/09/22 05:18:43;;;;;;;;;;;20.80;99.90;;;;;;5032936;28;20021;-72
2022/09/22 05:21:09;;;;;;;5.47;1.90;;;20.80;99.90;;;;;;5032706;28;19958;-73
2022/09/22 05:23:35;;;;;;;5.05;1.90;;;20.90;99.90;;;;;;5032300;28;20026;-73
2022/09/22 05:26:01;;;;;;;5.82;1.55;;;20.80;99.90;;;;;;5032703;28;20488;-72
2022/09/22 05:28:28;;;;;;;5.82;1.80;;;20.80;99.90;;;;;;5032130;28;20493;-73
2022/09/22 05:30:54;;;;;;;7.53;2.00;;;20.80;99.90;;;;;;5031588;28;20351;-72
2022/09/22 05:33:20;;;;;;;9.32;2.20;;;20.80;99.90;;;;;;5031552;28;20155;-73
2022/09/22 05:35:46;;;;;;;5.53;1.58;;;20.80;99.90;;;;;;5035869;28;20489;-72
2022/09/22 05:38:12;;;;;;;7.53;2.15;;;20.90;99.90;;;;;;5035667;28;20053;-73
2022/09/22 05:40:38;;;;;;;6.35;1.98;;;20.80;99.90;;;;;;5035225;28;20376;-72
2022/09/22 05:43:04;;;;;;;10.45;2.35;;;20.80;99.90;;;;;;5035066;28;20093;-71
2022/09/22 05:45:30;;;;;;;8.65;2.50;;;20.90;99.90;;;;;;5035103;28;20021;-71
2022/09/22 05:47:56;;;;;;;10.40;2.20;;;20.90;99.90;;;;;;5034577;28;20109;-71
2022/09/22 05:50:22;;;;;;;8.00;2.42;;;20.90;99.90;;;;;;5032903;28;20113;-73
2022/09/22 05:52:49;;;;;;;7.55;2.28;;;20.90;99.90;;;;;;5034263;28;20061;-72
2022/09/22 05:55:15;;;;;;;10.30;2.50;;;20.90;99.90;;;;;;5034460;28;20122;-73
2022/09/22 05:57:42;;;;;;;8.82;2.53;;;21.00;99.90;;;;;;5034030;28;20466;-73
2022/09/22 06:00:10;;;;;;;8.50;2.63;;;21.00;99.90;;;;;;5034186;28;20061;-73
2022/09/22 06:02:36;;;;;;;7.50;2.08;;;21.00;99.90;;;;;;5034712;28;20434;-72
2022/09/22 06:05:02;;;;;;;7.97;2.13;;;21.00;99.90;;;;;;5034538;28;20033;-72
2022/09/22 06:07:28;;;;;;;6.47;1.98;;;21.00;99.90;;;;;;5034733;28;20104;-73
2022/09/22 06:09:54;;;;;;;8.20;2.25;;;21.00;99.90;;;;;;5035020;28;20066;-72
2022/09/22 06:12:20;;;;;;;8.63;2.25;;;21.10;99.90;;;;;;5034529;28;20541;-74
2022/09/22 06:14:46;;;;;;;7.10;2.33;;;21.10;99.90;;;;;;5034187;28;20032;-72
2022/09/22 06:17:12;;;;;;;9.70;2.40;;;21.20;99.90;;;;;;5032991;28;20373;-72
2022/09/22 06:19:39;;;;;;;9.50;2.55;;;21.20;99.90;;;;;;5034337;28;20047;-72
2022/09/22 06:22:06;;;;;;;7.60;2.25;;;21.30;99.90;;;;;;5034607;28;20026;-72
2022/09/22 06:24:33;;;;;;;9.15;3.13;;;21.30;99.90;;;;;;5034372;28;20033;-72
2022/09/22 06:26:59;;;;;;;8.75;2.90;;;21.30;99.90;;;;;;5034474;28;20101;-72
2022/09/22 06:29:25;;;;;;;11.70;3.33;;;21.30;99.90;;;;;;5034182;28;20254;-72
2022/09/22 06:31:52;;;;;;;9.30;2.78;;;21.30;99.90;;;;;;5034265;28;20053;-72
2022/09/22 06:34:18;;;;;;;7.50;2.60;;;21.30;99.90;;;;;;5034472;28;20104;-73
2022/09/22 06:36:45;;;;;;;7.60;2.92;;;21.30;99.90;;;;;;5034232;28;20421;-73
2022/09/22 06:39:12;;;;;;;8.30;3.33;;;21.30;99.90;;;;;;5034164;28;20098;-73
2022/09/22 06:41:38;;;;;;;14.40;3.35;;;21.30;99.90;;;;;;5034145;28;20030;-73
2022/09/22 06:44:04;;;;;;;9.70;4.40;;;21.40;99.90;;;;;;5034159;28;20115;-73
2022/09/22 06:46:32;;;;;;;8.40;3.28;;;21.40;99.90;;;;;;5034229;28;20095;-73
2022/09/22 06:48:59;;;;;;;12.90;3.08;;;21.40;99.90;;;;;;5033955;28;20124;-72
2022/09/22 06:51:31;;;;;;;8.70;2.83;;;21.50;99.90;;;;;;5033870;28;20034;-72
2022/09/22 06:54:00;;;;;;;8.35;2.45;;;21.60;99.90;;;;;;5033474;28;20038;-72
2022/09/22 06:56:27;;;;;;;7.18;2.72;;;21.90;99.90;;;;;;5033680;28;20021;-72
2022/09/22 06:58:56;;;;;;;12.80;2.53;;;22.10;99.90;;;;;;5033332;28;20029;-73
2022/09/22 07:01:23;;;;;;;9.50;2.53;;;22.70;99.90;;;;;;5033503;28;20061;-74
2022/09/22 07:03:50;;;;;;;8.70;2.78;;;23.70;99.90;;;;;;5033834;28;20029;-72
2022/09/22 07:06:19;;;;;;;7.80;2.28;;;24.60;99.90;;;;;;5033902;28;20033;-73
2022/09/22 07:08:47;;;;;;;11.30;2.50;;;24.80;99.90;;;;;;5033944;28;20025;-73
2022/09/22 07:11:16;;;;;;;7.15;1.90;;;24.40;99.90;;;;;;5033370;28;20423;-73
2022/09/22 07:13:44;;;;;;;8.55;2.58;;;24.00;99.90;;;;;;5033090;28;20264;-74
2022/09/22 07:16:15;;;;;;;10.25;2.40;;;23.50;99.90;;;;;;5033229;28;20109;-74
2022/09/22 07:18:43;;;;;;;9.05;2.17;;;23.40;99.90;;;;;;5032000;28;20450;-74
2022/09/22 07:21:26;;;;;;;7.40;2.28;;;23.30;99.90;;;;;;5033503;28;20108;-74
2022/09/22 07:23:56;;;;;;;7.25;2.55;;;23.30;99.90;;;;;;5033367;28;20127;-73
2022/09/22 07:26:31;;;;;;;7.50;2.53;;;23.20;99.90;;;;;;5033071;28;20037;-73
2022/09/22 07:29:04;;;;;;;8.65;2.30;;;23.30;99.90;;;;;;5032821;28;20103;-73
2022/09/22 07:31:33;;;;;;;8.77;2.47;;;23.10;99.90;;;;;;5033136;28;20182;-73
2022/09/22 07:34:00;;;;;;;6.70;1.80;;;23.00;99.90;;;;;;5031790;28;20048;-73
2022/09/22 07:36:27;;;;;;;;;;;23.10;99.90;;;;;;5031879;28;20036;-73
2022/09/22 07:38:56;;;;;;;8.30;1.80;;;22.90;99.90;;;;;;5033229;28;19995;-74
2022/09/22 07:41:27;;;;;;;11.07;2.40;;;22.90;99.90;;;;;;5032694;28;20095;-73
2022/09/22 07:45:11;;;;;;;9.20;2.08;;;23.00;99.90;;;;;;5033458;28;20029;-73
2022/09/22 07:46:44;;;;;;;8.60;1.80;;;23.00;99.90;;;;;;5032968;28;20088;-73
2022/09/22 07:49:10;;;;;;;;;;;22.90;99.90;;;;;;5033433;28;20022;-73
2022/09/22 07:51:37;;;;;;;6.57;2.00;;;23.00;99.90;;;;;;5032841;28;20301;-74
2022/09/22 07:54:07;;;;;;;9.50;1.63;;;23.20;99.90;;;;;;5032556;28;20390;-75
2022/09/22 07:56:41;;;;;;;12.25;2.28;;;23.30;99.90;;;;;;5030231;28;20022;-72
2022/09/22 07:59:09;;;;;;;9.40;2.30;;;23.40;99.90;;;;;;5032054;28;20466;-74
2022/09/22 08:01:38;;;;;;;11.15;2.08;;;23.30;99.90;;;;;;5032172;28;20109;-74
2022/09/22 08:04:04;;;;;;;9.13;1.95;;;23.50;99.90;;;;;;5032831;28;20100;-73
2022/09/22 08:06:31;;;;;;;11.40;2.03;;;23.70;99.90;;;;;;5032634;28;20545;-73
2022/09/22 08:08:59;;;;;;;8.75;1.77;;;23.90;99.90;;;;;;5032376;28;20438;-72
2022/09/22 08:11:28;;;;;;;8.02;1.88;;;23.80;99.90;;;;;;5032133;28;20037;-72
2022/09/22 08:13:58;;;;;;;14.20;2.47;;;23.80;99.90;;;;;;5030417;28;20435;-72
2022/09/22 08:16:27;;;;;;;6.68;1.80;;;23.90;99.90;;;;;;5032061;28;20021;-73
2022/09/22 08:18:58;;;;;;;8.63;2.10;;;24.00;99.90;;;;;;5032678;28;20025;-73
2022/09/22 08:21:25;;;;;;;11.30;2.20;;;23.90;99.90;;;;;;5033040;28;20071;-73
2022/09/22 08:23:53;;;;;;;9.45;2.58;;;23.90;99.90;;;;;;5032071;28;20104;-72
2022/09/22 08:26:22;;;;;;;6.38;2.20;;;24.00;99.90;;;;;;5032022;28;20021;-72
2022/09/22 08:28:52;;;;;;;6.57;2.10;;;23.70;99.90;;;;;;5032324;28;20026;-73
2022/09/22 08:31:19;;;;;;;7.75;2.22;;;23.60;99.90;;;;;;5030535;28;20065;-72
2022/09/22 08:33:47;;;;;;;9.85;2.05;;;23.60;99.90;;;;;;5031686;28;20156;-72
2022/09/22 08:36:14;;;;;;;9.27;2.13;;;23.40;99.90;;;;;;5031906;28;20025;-72
2022/09/22 08:38:41;;;;;;;8.45;2.13;;;23.20;99.90;;;;;;5032041;28;20466;-73
2022/09/22 08:41:14;;;;;;;7.03;2.00;;;23.20;99.90;;;;;;5030307;28;20504;-72
2022/09/22 08:44:00;;;;;;;8.23;2.20;;;23.30;99.90;;;;;;5031815;28;20021;-72
2022/09/22 08:46:28;;;;;;;;;;;23.30;99.90;;;;;;5032362;28;20126;-72
2022/09/22 08:51:52;;;;;;;8.75;1.95;;;23.10;99.90;;;;;;5031480;28;20044;-73
2022/09/22 08:54:20;;;;;;;5.95;1.88;;;22.90;99.90;;;;;;5031296;28;20084;-73
2022/09/22 08:57:09;;;;;;;11.73;2.22;;;22.80;99.90;;;;;;5031198;28;20026;-73
2022/09/22 08:59:43;;;;;;;9.80;2.00;;;23.00;99.90;;;;;;5031611;28;20032;-74
2022/09/22 09:02:36;;;;;;;10.23;2.28;;;23.00;99.90;;;;;;5031217;28;20037;-73
2022/09/22 09:08:43;;;;;;;13.32;2.58;;;23.20;99.90;;;;;;5031283;28;20484;-74
2022/09/22 09:11:33;;;;;;;7.97;2.15;;;23.30;99.90;;;;;;5029660;28;20376;-73
2022/09/22 09:14:20;;;;;;;5.30;1.83;;;23.50;99.90;;;;;;5029520;28;20512;-73
2022/09/22 09:17:03;;;;;;;14.57;2.50;;;23.60;99.90;;;;;;5029522;28;20021;-73
2022/09/22 09:19:42;;;;;;;9.57;1.70;;;23.70;99.90;;;;;;5031595;28;20048;-74
2022/09/22 09:22:23;;;;;;;4.20;1.85;;;23.90;99.90;;;;;;5030949;28;20024;-73
2022/09/22 09:24:58;;;;;;;14.25;1.92;;;23.90;99.90;;;;;;5031243;28;20044;-73
2022/09/22 09:27:29;;;;;;;8.13;1.77;;;23.60;99.90;;;;;;5031082;28;20067;-73
2022/09/22 09:30:04;;;;;;;4.90;1.70;;;23.40;99.90;;;;;;5031294;28;20053;-74
2022/09/22 09:32:42;;;;;;;11.20;1.92;;;23.30;99.90;;;;;;5030768;28;20140;-73
2022/09/22 09:35:15;;;;;;;8.30;1.85;;;23.30;99.90;;;;;;5031138;28;20060;-73
2022/09/22 09:37:47;;;;;;;9.40;1.98;;;23.70;99.90;;;;;;5029227;28;20026;-73
2022/09/22 09:40:19;;;;;;;7.45;2.70;;;24.00;99.90;;;;;;5031114;28;20048;-73
2022/09/22 09:43:03;;;;;;;9.18;1.92;;;24.20;99.90;;;;;;5031187;28;20401;-73
2022/09/22 09:45:54;;;;;;;8.05;2.30;;;24.30;99.90;;;;;;5031065;28;20100;-73
2022/09/22 09:48:33;;;;;;;7.60;2.00;;;24.40;99.90;;;;;;5030069;28;20044;-73
2022/09/22 09:51:04;;;;;;;12.20;1.98;;;24.60;99.90;;;;;;5030886;28;20049;-73
2022/09/22 09:53:36;;;;;;;8.30;2.00;;;24.90;99.90;;;;;;5030112;28;20046;-73
2022/09/22 09:56:14;;;;;;;11.60;2.00;;;25.10;99.90;;;;;;5030425;28;20050;-73
2022/09/22 10:01:41;;;;;;;10.32;1.77;;;25.30;99.90;;;;;;5030821;28;20079;-75
2022/09/22 10:04:25;;;;;;;12.35;2.20;;;25.50;99.90;;;;;;5030057;28;20456;-73
2022/09/22 10:06:52;;;;;;;8.10;2.15;;;25.40;99.90;;;;;;5030199;28;20072;-75
2022/09/22 10:09:26;;;;;;;7.68;2.28;;;25.30;99.90;;;;;;5030444;28;20025;-74
2022/09/22 10:12:03;;;;;;;7.70;1.88;;;25.30;99.90;;;;;;5029061;28;20033;-74
2022/09/22 10:14:32;;;;;;;5.55;1.48;;;25.40;99.90;;;;;;5029980;28;20049;-73
2022/09/22 10:16:58;;;;;;;10.85;2.00;;;25.30;99.90;;;;;;5029507;28;20022;-73
2022/09/22 10:19:28;;;;;;;10.88;2.38;;;25.00;99.90;;;;;;5030254;28;20419;-74
2022/09/22 10:22:16;;;;;;;6.50;1.70;;;24.80;99.90;;;;;;5033614;28;20025;-74
2022/09/22 10:24:53;;;;;;;5.97;1.95;;;24.80;99.90;;;;;;5033730;28;20224;-74
2022/09/22 10:27:22;;;;;;;9.35;1.95;;;24.60;99.90;;;;;;5034193;28;20025;-73
2022/09/22 10:30:09;;;;;;;7.72;1.90;;;24.60;99.90;;;;;;5034453;28;20393;-74
2022/09/22 10:32:36;;;;;;;8.40;1.92;;;24.40;99.90;;;;;;5031913;28;20432;-74
2022/09/22 10:35:29;;;;;;;9.68;1.90;;;24.30;99.90;;;;;;5033588;28;20120;-74
2022/09/22 10:38:09;;;;;;;10.07;1.88;;;24.40;99.90;;;;;;5033976;28;20087;-73
2022/09/22 10:40:38;;;;;;;4.18;1.60;;;24.40;99.90;;;;;;5033994;28;20029;-73
2022/09/22 10:43:16;;;;;;;8.15;1.90;;;24.20;99.90;;;;;;5034352;28;20056;-74
2022/09/22 10:45:56;;;;;;;7.85;1.80;;;24.30;99.90;;;;;;5034349;28;20450;-73
2022/09/22 10:48:52;;;;;;;7.75;1.90;;;24.30;99.90;;;;;;5034124;28;20117;-72
2022/09/22 10:52:02;;;;;;;8.00;2.03;;;24.40;99.90;;;;;;5033420;28;20509;-73
2022/09/22 10:55:13;;;;;;;5.15;1.48;;;24.40;99.90;;;;;;5011437;28;20141;-73
2022/09/22 10:58:03;;;;;;;9.18;2.20;;;24.50;99.90;;;;;;4981451;28;20048;-73
2022/09/22 11:00:34;;;;;;;10.05;1.95;;;24.30;99.90;;;;;;5012194;28;20470;-74
2022/09/22 11:03:13;;;;;;;5.82;1.95;;;24.10;99.90;;;;;;5010583;28;20057;-73
2022/09/22 11:12:37;;;;;;;12.75;2.20;;;24.40;99.90;;;;;;5011641;28;20426;-72
2022/09/22 11:15:25;;;;;;;10.18;2.10;;;24.70;99.90;;;;;;5010732;28;20046;-72
2022/09/22 11:18:07;;;;;;;9.18;2.10;;;24.80;99.90;;;;;;5011263;28;20025;-73
2022/09/22 11:20:47;;;;;;;6.63;1.90;;;24.90;99.90;;;;;;5011161;28;20112;-72
2022/09/22 11:23:21;;;;;;;10.88;2.22;;;24.90;99.90;;;;;;5011887;28;20026;-72
2022/09/22 11:26:10;;;;;;;10.57;2.25;;;24.90;99.90;;;;;;5011641;28;20041;-74
2022/09/22 11:29:16;;;;;;;8.55;2.13;;;24.80;99.90;;;;;;5025992;28;20037;-73
2022/09/22 11:32:03;;;;;;;5.85;1.92;;;24.70;99.90;;;;;;5030925;28;20039;-73
2022/09/22 11:35:03;;;;;;;8.20;2.22;;;24.60;99.90;;;;;;5033918;28;20040;-73
2022/09/22 11:38:03;;;;;;;7.75;2.20;;;24.70;99.90;;;;;;5033780;28;20187;-74
2022/09/22 11:40:45;;;;;;;10.35;2.00;;;24.50;99.90;;;;;;5033530;28;20026;-75
2022/09/22 11:43:26;;;;;;;12.35;2.72;;;24.50;99.90;;;;;;5033554;28;20021;-74
2022/09/22 11:45:58;;;;;;;7.13;2.30;;;24.30;99.90;;;;;;5033052;28;20061;-75
2022/09/22 11:48:41;;;;;;;9.10;2.40;;;24.30;99.90;;;;;;5032055;28;20033;-73
2022/09/22 11:51:32;;;;;;;9.98;2.35;;;24.20;99.90;;;;;;5031465;28;20033;-72
2022/09/22 11:54:15;;;;;;;8.98;2.30;;;24.10;99.90;;;;;;5033180;28;20120;-73
2022/09/22 11:56:46;;;;;;;9.38;2.50;;;24.20;99.90;;;;;;5033503;28;20053;-72
2022/09/22 11:59:23;;;;;;;7.05;1.92;;;24.30;99.90;;;;;;5032240;28;20124;-73
2022/09/22 12:01:50;;;;;;;10.48;2.13;;;24.30;99.90;;;;;;5033414;28;20057;-74
2022/09/22 12:04:32;;;;;;;9.48;2.47;;;24.40;99.90;;;;;;5033584;28;20033;-73
2022/09/22 12:07:01;;;;;;;7.95;2.20;;;24.50;99.90;;;;;;5033985;28;20017;-73
2022/09/22 12:09:52;;;;;;;8.68;2.33;;;24.40;99.90;;;;;;5033228;28;20036;-73
2022/09/22 12:12:21;;;;;;;9.32;2.60;;;24.40;99.90;;;;;;5033739;28;20022;-73
2022/09/22 12:14:55;;;;;;;8.02;2.63;;;24.40;99.90;;;;;;5033147;28;20051;-73
2022/09/22 12:17:35;;;;;;;10.07;2.50;;;24.40;99.90;;;;;;5031981;28;20060;-74
2022/09/22 12:20:24;;;;;;;9.25;2.70;;;24.20;99.90;;;;;;5031958;28;20017;-73
2022/09/22 12:23:18;;;;;;;8.43;2.75;;;24.00;99.90;;;;;;5029168;28;20029;-73
2022/09/22 12:25:55;;;;;;;5.60;2.40;;;24.20;99.90;;;;;;5033210;28;20091;-73
2022/09/22 12:28:27;;;;;;;8.77;2.80;;;24.30;99.90;;;;;;5032510;28;20409;-73
2022/09/22 12:31:11;;;;;;;9.40;2.80;;;24.40;99.90;;;;;;5033033;28;20033;-74
2022/09/22 12:33:45;;;;;;;9.20;2.80;;;24.30;99.90;;;;;;5032859;28;20049;-73
2022/09/22 12:36:11;;;;;;;11.98;2.95;;;24.20;99.90;;;;;;5033602;28;20462;-74
2022/09/22 12:38:37;;;;;;;;;;;24.00;99.90;;;;;;5033848;28;20026;-74
2022/09/22 12:41:05;;;;;;;8.02;2.53;;;23.90;99.90;;;;;;5033176;28;19905;-74
2022/09/22 12:43:33;;;;;;;9.95;2.55;;;24.10;99.90;;;;;;5033050;28;20022;-74
2022/09/22 12:46:05;;;;;;;7.63;2.20;;;24.30;99.90;;;;;;5033832;28;20109;-73
2022/09/22 12:48:36;;;;;;;6.85;2.15;;;24.50;99.90;;;;;;5033758;28;20030;-74
2022/09/22 12:51:27;;;;;;;10.88;2.25;;;24.60;99.90;;;;;;5032883;28;20068;-74
2022/09/22 12:54:21;;;;;;;8.13;2.08;;;24.50;99.90;;;;;;5033176;28;20037;-73
2022/09/22 12:57:21;;;;;;;9.52;2.38;;;24.40;99.90;;;;;;5032420;28;20033;-74
2022/09/22 13:00:16;;;;;;;9.95;2.63;;;24.30;99.90;;;;;;5033206;28;20470;-73
2022/09/22 13:02:46;;;;;;;11.68;3.40;;;24.50;99.90;;;;;;5032986;28;20348;-74
2022/09/22 13:05:26;;;;;;;11.85;3.55;;;24.70;99.90;;;;;;5033377;28;20358;-73
2022/09/22 13:07:54;;;;;;;10.05;3.28;;;24.90;99.90;;;;;;5032443;28;20026;-74
2022/09/22 13:10:20;;;;;;;6.95;2.70;;;24.60;99.90;;;;;;5031483;28;20060;-74
2022/09/22 13:13:05;;;;;;;6.43;2.72;;;24.60;99.90;;;;;;5032535;28;20051;-72
2022/09/22 13:15:31;;;;;;;7.72;2.65;;;24.80;99.90;;;;;;5032388;28;20037;-73
2022/09/22 13:17:58;;;;;;;15.25;3.10;;;24.90;99.90;;;;;;5032724;28;20018;-75
2022/09/22 13:20:34;;;;;;;10.25;2.72;;;24.80;99.90;;;;;;5031470;28;20029;-72
2022/09/22 13:23:10;;;;;;;;;;;25.00;99.90;;;;;;5033040;28;20022;-74
2022/09/22 13:25:37;;;;;;;9.10;2.72;;;25.10;99.90;;;;;;5033266;28;20388;-73
2022/09/22 13:28:08;;;;;;;10.00;2.40;;;24.90;99.90;;;;;;5032818;28;20025;-73
2022/09/22 13:30:35;;;;;;;7.40;2.08;;;24.70;99.90;;;;;;5031369;28;20041;-74
2022/09/22 13:33:01;;;;;;;8.90;2.28;;;24.60;99.90;;;;;;5031116;28;20100;-73
2022/09/22 13:35:34;;;;;;;6.63;2.00;;;24.50;99.90;;;;;;5032629;28;20037;-73